createdAt,value
2022-09-30T00:00:12.549Z,6.97
2022-09-30T00:01:12.542Z,6.99
2022-09-30T00:02:12.605Z,6.97
2022-09-30T00:03:12.602Z,6.96
2022-09-30T00:04:12.516Z,7.01
2022-09-30T00:05:12.506Z,6.96
2022-09-30T00:06:13.171Z,7.01
2022-09-30T00:07:12.511Z,7.00
2022-09-30T00:08:12.690Z,6.97
2022-09-30T00:09:12.485Z,6.93
2022-09-30T00:10:12.439Z,6.91
2022-09-30T00:11:12.460Z,6.81
2022-09-30T00:12:15.171Z,6.76
2022-09-30T00:13:12.419Z,6.69
2022-09-30T00:14:13.169Z,6.63
2022-09-30T00:15:12.413Z,6.57
2022-09-30T00:16:12.464Z,6.61
2022-09-30T00:17:12.380Z,6.57
2022-09-30T00:18:12.345Z,6.55
2022-09-30T00:19:12.348Z,6.63
2022-09-30T00:20:15.177Z,6.53
2022-09-30T00:21:12.326Z,6.51
2022-09-30T00:22:12.309Z,6.35
2022-09-30T00:23:12.334Z,6.32
2022-09-30T00:24:12.288Z,6.38
2022-09-30T00:25:12.288Z,6.50
2022-09-30T00:26:13.167Z,6.51
2022-09-30T00:27:15.177Z,6.54
2022-09-30T00:28:12.268Z,6.60
2022-09-30T00:29:12.234Z,6.54
2022-09-30T00:30:12.230Z,6.60
2022-09-30T00:31:12.283Z,6.61
2022-09-30T00:32:13.179Z,6.65
2022-09-30T00:33:12.192Z,6.76
2022-09-30T00:34:12.209Z,6.69
2022-09-30T00:35:12.170Z,6.72
2022-09-30T00:36:12.167Z,6.75
2022-09-30T00:37:12.147Z,6.79
2022-09-30T00:38:14.693Z,6.76
2022-09-30T00:39:12.133Z,6.75
2022-09-30T00:40:12.127Z,6.73
2022-09-30T00:41:12.135Z,6.78
2022-09-30T00:42:12.106Z,6.78
2022-09-30T00:43:12.673Z,6.79
2022-09-30T00:44:12.079Z,6.83
2022-09-30T00:45:12.672Z,6.76
2022-09-30T00:46:12.694Z,6.79
2022-09-30T00:47:12.043Z,6.78
2022-09-30T00:48:12.676Z,6.82
2022-09-30T00:49:12.015Z,6.83
2022-09-30T00:50:12.026Z,6.82
2022-09-30T00:51:11.994Z,6.82
2022-09-30T00:52:11.996Z,6.81
2022-09-30T00:53:11.994Z,6.72
2022-09-30T00:54:13.103Z,6.72
2022-09-30T00:55:11.949Z,6.65
2022-09-30T00:56:11.967Z,6.60
2022-09-30T00:57:11.929Z,6.63
2022-09-30T00:58:11.919Z,6.63
2022-09-30T00:59:11.917Z,6.61
2022-09-30T01:00:12.206Z,6.55
2022-09-30T01:01:11.924Z,6.50
2022-09-30T01:02:11.917Z,6.51
2022-09-30T01:03:11.867Z,6.64
2022-09-30T01:04:11.862Z,6.61
2022-09-30T01:05:12.675Z,6.64
2022-09-30T01:06:11.881Z,6.61
2022-09-30T01:07:11.842Z,6.63
2022-09-30T01:08:11.841Z,6.60
2022-09-30T01:09:11.837Z,6.61
2022-09-30T01:10:11.862Z,6.58
2022-09-30T01:11:11.783Z,6.60
2022-09-30T01:12:11.775Z,6.61
2022-09-30T01:13:11.778Z,6.64
2022-09-30T01:14:11.757Z,6.63
2022-09-30T01:15:11.744Z,6.53
2022-09-30T01:16:11.753Z,6.55
2022-09-30T01:17:11.731Z,6.51
2022-09-30T01:18:11.707Z,6.46
2022-09-30T01:19:11.715Z,6.45
2022-09-30T01:20:11.694Z,6.48
2022-09-30T01:21:11.685Z,6.40
2022-09-30T01:22:11.667Z,6.45
2022-09-30T01:23:11.672Z,6.43
2022-09-30T01:24:11.647Z,6.45
2022-09-30T01:25:11.656Z,6.53
2022-09-30T01:26:11.636Z,6.46
2022-09-30T01:27:11.594Z,6.40
2022-09-30T01:28:11.604Z,6.28
2022-09-30T01:29:11.605Z,6.35
2022-09-30T01:30:11.570Z,6.32
2022-09-30T01:31:11.623Z,6.30
2022-09-30T01:32:11.555Z,6.30
2022-09-30T01:33:12.613Z,6.30
2022-09-30T01:34:11.540Z,6.32
2022-09-30T01:35:11.533Z,6.28
2022-09-30T01:36:11.529Z,6.36
2022-09-30T01:37:11.512Z,6.32
2022-09-30T01:38:11.496Z,6.30
2022-09-30T01:39:11.509Z,6.27
2022-09-30T01:40:11.466Z,6.27
2022-09-30T01:41:11.511Z,6.21
2022-09-30T01:42:11.483Z,6.25
2022-09-30T01:43:11.448Z,6.19
2022-09-30T01:44:11.440Z,6.17
2022-09-30T01:45:11.418Z,6.24
2022-09-30T01:46:11.573Z,6.20
2022-09-30T01:47:11.699Z,6.11
2022-09-30T01:48:12.171Z,6.27
2022-09-30T01:49:11.382Z,6.24
2022-09-30T01:50:11.371Z,6.24
2022-09-30T01:51:11.353Z,6.14
2022-09-30T01:52:11.355Z,6.24
2022-09-30T01:53:11.350Z,6.20
2022-09-30T01:54:11.322Z,6.14
2022-09-30T01:55:11.320Z,6.24
2022-09-30T01:56:11.318Z,6.16
2022-09-30T01:57:11.295Z,6.08
2022-09-30T01:58:11.291Z,6.11
2022-09-30T01:59:11.291Z,6.08
2022-09-30T02:00:11.265Z,6.14
2022-09-30T02:01:11.333Z,6.11
2022-09-30T02:02:11.287Z,6.21
2022-09-30T02:03:11.230Z,6.20
2022-09-30T02:04:11.232Z,6.14
2022-09-30T02:05:11.222Z,6.19
2022-09-30T02:06:11.195Z,6.17
2022-09-30T02:07:11.185Z,6.16
2022-09-30T02:08:11.178Z,6.16
2022-09-30T02:09:11.235Z,6.19
2022-09-30T02:10:11.152Z,6.16
2022-09-30T02:11:11.152Z,6.08
2022-09-30T02:12:11.133Z,6.17
2022-09-30T02:13:11.111Z,6.19
2022-09-30T02:14:11.127Z,6.20
2022-09-30T02:15:11.092Z,6.10
2022-09-30T02:16:11.140Z,6.10
2022-09-30T02:17:11.667Z,6.06
2022-09-30T02:18:11.064Z,6.06
2022-09-30T02:19:11.668Z,5.99
2022-09-30T02:20:11.052Z,6.03
2022-09-30T02:21:11.033Z,6.06
2022-09-30T02:22:11.048Z,6.13
2022-09-30T02:23:11.018Z,6.11
2022-09-30T02:24:11.670Z,5.99
2022-09-30T02:25:11.209Z,6.02
2022-09-30T02:26:10.983Z,6.05
2022-09-30T02:27:10.963Z,6.02
2022-09-30T02:28:10.964Z,6.03
2022-09-30T02:29:10.937Z,5.96
2022-09-30T02:30:11.278Z,6.02
2022-09-30T02:31:10.990Z,5.96
2022-09-30T02:32:10.909Z,6.03
2022-09-30T02:33:11.674Z,5.93
2022-09-30T02:34:10.897Z,5.96
2022-09-30T02:35:10.881Z,6.01
2022-09-30T02:36:10.883Z,5.98
2022-09-30T02:37:10.861Z,5.85
2022-09-30T02:38:10.847Z,5.98
2022-09-30T02:39:10.856Z,5.90
2022-09-30T02:40:11.680Z,5.88
2022-09-30T02:41:10.850Z,5.90
2022-09-30T02:42:10.803Z,5.88
2022-09-30T02:43:10.785Z,5.92
2022-09-30T02:44:10.787Z,5.85
2022-09-30T02:45:10.817Z,5.90
2022-09-30T02:46:10.816Z,5.90
2022-09-30T02:47:13.680Z,5.92
2022-09-30T02:48:10.740Z,5.88
2022-09-30T02:49:10.739Z,5.77
2022-09-30T02:50:11.694Z,5.81
2022-09-30T02:51:10.743Z,5.77
2022-09-30T02:52:10.700Z,5.81
2022-09-30T02:53:10.714Z,5.77
2022-09-30T02:54:10.680Z,5.75
2022-09-30T02:55:11.173Z,5.77
2022-09-30T02:56:10.657Z,5.70
2022-09-30T02:57:10.664Z,5.74
2022-09-30T02:58:10.638Z,5.73
2022-09-30T02:59:10.657Z,5.74
2022-09-30T03:00:13.170Z,5.80
2022-09-30T03:01:10.695Z,5.77
2022-09-30T03:02:10.693Z,5.85
2022-09-30T03:03:10.580Z,5.85
2022-09-30T03:04:10.576Z,5.85
2022-09-30T03:05:10.613Z,5.81
2022-09-30T03:06:10.555Z,5.84
2022-09-30T03:07:10.541Z,5.88
2022-09-30T03:08:10.528Z,5.80
2022-09-30T03:09:12.836Z,5.83
2022-09-30T03:10:10.549Z,5.83
2022-09-30T03:11:10.508Z,5.65
2022-09-30T03:12:10.486Z,5.77
2022-09-30T03:13:10.483Z,5.74
2022-09-30T03:14:11.191Z,5.69
2022-09-30T03:15:10.468Z,5.67
2022-09-30T03:16:13.930Z,5.65
2022-09-30T03:17:10.434Z,5.63
2022-09-30T03:18:10.782Z,5.67
2022-09-30T03:19:13.172Z,5.67
2022-09-30T03:20:10.461Z,5.60
2022-09-30T03:21:10.387Z,5.66
2022-09-30T03:22:10.400Z,5.62
2022-09-30T03:23:10.395Z,5.65
2022-09-30T03:24:11.168Z,5.62
2022-09-30T03:25:10.706Z,5.65
2022-09-30T03:26:10.335Z,5.74
2022-09-30T03:27:10.326Z,5.70
2022-09-30T03:28:10.335Z,5.73
2022-09-30T03:29:13.179Z,5.77
2022-09-30T03:30:10.298Z,5.67
2022-09-30T03:31:10.428Z,5.67
2022-09-30T03:32:10.276Z,5.69
2022-09-30T03:33:10.282Z,5.66
2022-09-30T03:34:11.193Z,5.73
2022-09-30T03:35:10.253Z,5.73
2022-09-30T03:36:10.240Z,5.70
2022-09-30T03:37:10.233Z,5.67
2022-09-30T03:38:17.176Z,5.70
2022-09-30T03:39:10.197Z,5.66
2022-09-30T03:40:11.183Z,5.63
2022-09-30T03:41:10.175Z,5.65
2022-09-30T03:42:10.168Z,5.63
2022-09-30T03:43:10.166Z,5.60
2022-09-30T03:44:10.679Z,5.58
2022-09-30T03:45:10.135Z,5.59
2022-09-30T03:46:10.747Z,5.52
2022-09-30T03:47:10.110Z,5.49
2022-09-30T03:48:10.249Z,5.58
2022-09-30T03:49:10.678Z,5.44
2022-09-30T03:50:10.692Z,5.49
2022-09-30T03:51:10.075Z,5.45
2022-09-30T03:52:10.050Z,5.47
2022-09-30T03:53:10.053Z,5.47
2022-09-30T03:54:10.052Z,5.49
2022-09-30T03:55:10.035Z,5.38
2022-09-30T03:56:10.017Z,5.33
2022-09-30T03:57:10.000Z,5.40
2022-09-30T03:58:09.991Z,5.38
2022-09-30T03:59:10.670Z,5.29
2022-09-30T04:00:09.986Z,5.26
2022-09-30T04:01:09.996Z,5.20
2022-09-30T04:02:10.013Z,5.22
2022-09-30T04:03:09.941Z,5.22
2022-09-30T04:04:09.930Z,5.23
2022-09-30T04:05:09.912Z,5.19
2022-09-30T04:06:09.950Z,5.26
2022-09-30T04:07:09.887Z,5.32
2022-09-30T04:08:09.893Z,5.26
2022-09-30T04:09:09.984Z,5.23
2022-09-30T04:10:09.871Z,5.20
2022-09-30T04:11:09.890Z,5.22
2022-09-30T04:12:09.852Z,5.23
2022-09-30T04:13:09.853Z,5.29
2022-09-30T04:14:09.822Z,5.37
2022-09-30T04:15:09.806Z,5.29
2022-09-30T04:16:09.855Z,5.26
2022-09-30T04:17:09.789Z,5.30
2022-09-30T04:18:09.788Z,5.29
2022-09-30T04:19:09.768Z,5.26
2022-09-30T04:20:09.747Z,5.26
2022-09-30T04:21:09.767Z,5.17
2022-09-30T04:22:09.742Z,5.20
2022-09-30T04:23:09.725Z,5.14
2022-09-30T04:24:09.804Z,5.22
2022-09-30T04:25:09.707Z,5.24
2022-09-30T04:26:09.686Z,5.23
2022-09-30T04:27:09.724Z,5.24
2022-09-30T04:28:09.688Z,5.30
2022-09-30T04:29:09.676Z,5.37
2022-09-30T04:30:09.656Z,5.35
2022-09-30T04:31:09.658Z,5.40
2022-09-30T04:32:09.679Z,5.27
2022-09-30T04:33:09.613Z,5.42
2022-09-30T04:34:09.623Z,5.38
2022-09-30T04:35:09.724Z,5.42
2022-09-30T04:36:16.179Z,5.30
2022-09-30T04:37:11.041Z,5.27
2022-09-30T04:38:09.725Z,5.32
2022-09-30T04:39:09.543Z,5.26
2022-09-30T04:40:09.543Z,5.20
2022-09-30T04:41:09.547Z,5.19
2022-09-30T04:42:09.511Z,5.17
2022-09-30T04:43:09.501Z,5.23
2022-09-30T04:44:09.517Z,5.20
2022-09-30T04:45:09.679Z,5.08
2022-09-30T04:46:12.265Z,5.08
2022-09-30T04:47:09.465Z,5.04
2022-09-30T04:48:09.440Z,5.11
2022-09-30T04:49:09.726Z,4.99
2022-09-30T04:50:09.447Z,4.96
2022-09-30T04:51:09.427Z,4.90
2022-09-30T04:52:09.503Z,4.97
2022-09-30T04:53:09.401Z,5.02
2022-09-30T04:54:09.423Z,5.09
2022-09-30T04:55:09.388Z,5.09
2022-09-30T04:56:09.365Z,5.01
2022-09-30T04:57:09.385Z,5.01
2022-09-30T04:58:09.364Z,5.05
2022-09-30T04:59:09.347Z,5.04
2022-09-30T05:00:09.333Z,4.93
2022-09-30T05:01:09.342Z,4.96
2022-09-30T05:02:09.359Z,4.93
2022-09-30T05:03:09.283Z,4.97
2022-09-30T05:04:09.287Z,5.02
2022-09-30T05:05:09.273Z,4.99
2022-09-30T05:06:09.255Z,4.99
2022-09-30T05:07:09.245Z,4.96
2022-09-30T05:08:12.707Z,4.97
2022-09-30T05:09:16.328Z,4.87
2022-09-30T05:10:12.181Z,4.99
2022-09-30T05:11:09.207Z,4.97
2022-09-30T05:12:09.191Z,5.01
2022-09-30T05:13:09.184Z,5.02
2022-09-30T05:14:09.199Z,4.99
2022-09-30T05:15:09.162Z,5.01
2022-09-30T05:16:09.183Z,5.04
2022-09-30T05:17:09.164Z,4.99
2022-09-30T05:18:09.690Z,4.99
2022-09-30T05:19:09.131Z,4.97
2022-09-30T05:20:09.133Z,4.96
2022-09-30T05:21:09.686Z,4.96
2022-09-30T05:22:09.671Z,4.96
2022-09-30T05:23:10.116Z,4.93
2022-09-30T05:24:09.054Z,4.97
2022-09-30T05:25:09.085Z,4.96
2022-09-30T05:26:12.250Z,4.96
2022-09-30T05:27:09.033Z,4.90
2022-09-30T05:28:09.684Z,4.80
2022-09-30T05:29:09.033Z,4.77
2022-09-30T05:30:09.002Z,4.87
2022-09-30T05:31:09.105Z,4.88
2022-09-30T05:32:08.972Z,4.97
2022-09-30T05:33:08.960Z,4.87
2022-09-30T05:34:08.958Z,4.91
2022-09-30T05:35:08.949Z,5.02
2022-09-30T05:36:08.933Z,5.01
2022-09-30T05:37:08.946Z,4.99
2022-09-30T05:38:08.905Z,5.02
2022-09-30T05:39:08.897Z,4.99
2022-09-30T05:40:08.911Z,4.99
2022-09-30T05:41:08.922Z,5.02
2022-09-30T05:42:13.259Z,5.04
2022-09-30T05:43:09.844Z,5.09
2022-09-30T05:44:08.837Z,5.09
2022-09-30T05:45:08.836Z,5.12
2022-09-30T05:46:08.838Z,5.12
2022-09-30T05:47:08.937Z,5.20
2022-09-30T05:48:08.794Z,5.23
2022-09-30T05:49:08.788Z,5.22
2022-09-30T05:50:08.781Z,5.15
2022-09-30T05:51:08.767Z,5.19
2022-09-30T05:52:08.776Z,5.22
2022-09-30T05:53:11.672Z,5.20
2022-09-30T05:54:08.741Z,5.20
2022-09-30T05:55:08.717Z,5.20
2022-09-30T05:56:08.720Z,5.17
2022-09-30T05:57:08.750Z,5.20
2022-09-30T05:58:08.706Z,5.19
2022-09-30T05:59:08.690Z,5.17
2022-09-30T06:00:09.167Z,5.19
2022-09-30T06:01:13.257Z,5.17
2022-09-30T06:02:09.808Z,5.17
2022-09-30T06:03:08.733Z,5.22
2022-09-30T06:04:08.626Z,5.19
2022-09-30T06:05:08.612Z,5.32
2022-09-30T06:06:08.613Z,5.23
2022-09-30T06:07:10.578Z,5.29
2022-09-30T06:08:08.597Z,5.26
2022-09-30T06:09:08.631Z,5.33
2022-09-30T06:10:08.570Z,5.32
2022-09-30T06:11:08.550Z,5.24
2022-09-30T06:12:08.540Z,5.35
2022-09-30T06:13:15.184Z,5.37
2022-09-30T06:14:08.530Z,5.44
2022-09-30T06:15:11.178Z,5.40
2022-09-30T06:16:08.554Z,5.38
2022-09-30T06:17:08.478Z,5.44
2022-09-30T06:18:13.676Z,5.37
2022-09-30T06:19:09.485Z,5.44
2022-09-30T06:20:08.468Z,5.44
2022-09-30T06:21:08.709Z,5.38
2022-09-30T06:22:09.170Z,5.40
2022-09-30T06:23:08.419Z,5.42
2022-09-30T06:24:08.401Z,5.45
2022-09-30T06:25:08.396Z,5.48
2022-09-30T06:26:08.394Z,5.52
2022-09-30T06:27:08.693Z,5.51
2022-09-30T06:28:08.369Z,5.49
2022-09-30T06:29:08.423Z,5.52
2022-09-30T06:30:08.371Z,5.48
2022-09-30T06:31:08.343Z,5.63
2022-09-30T06:32:08.351Z,5.56
2022-09-30T06:33:08.344Z,5.63
2022-09-30T06:34:08.299Z,5.65
2022-09-30T06:35:08.350Z,5.59
2022-09-30T06:36:08.286Z,5.66
2022-09-30T06:37:08.271Z,5.78
2022-09-30T06:38:08.262Z,5.73
2022-09-30T06:39:12.912Z,5.74
2022-09-30T06:40:09.250Z,5.81
2022-09-30T06:41:10.200Z,5.88
2022-09-30T06:42:08.207Z,5.92
2022-09-30T06:43:08.193Z,5.96
2022-09-30T06:44:08.267Z,6.06
2022-09-30T06:45:08.230Z,6.03
2022-09-30T06:46:15.401Z,6.10
2022-09-30T06:47:20.279Z,6.17
2022-09-30T06:48:09.221Z,6.06
2022-09-30T06:49:13.730Z,6.19
2022-09-30T06:50:16.684Z,6.16
2022-09-30T06:51:11.673Z,6.25
2022-09-30T06:52:08.111Z,6.27
2022-09-30T06:53:08.087Z,6.27
2022-09-30T06:54:08.118Z,6.33
2022-09-30T06:55:08.087Z,6.30
2022-09-30T06:56:08.062Z,6.36
2022-09-30T06:57:08.038Z,6.48
2022-09-30T06:58:08.038Z,6.45
2022-09-30T06:59:08.019Z,6.50
2022-09-30T07:00:08.037Z,6.54
2022-09-30T07:01:08.103Z,6.68
2022-09-30T07:02:08.065Z,6.57
2022-09-30T07:03:07.981Z,6.68
2022-09-30T07:04:07.978Z,6.72
2022-09-30T07:05:07.966Z,6.73
2022-09-30T07:06:07.969Z,6.79
2022-09-30T07:07:08.670Z,6.81
2022-09-30T07:08:07.926Z,6.94
2022-09-30T07:09:08.043Z,6.91
2022-09-30T07:10:07.928Z,6.99
2022-09-30T07:11:07.905Z,6.94
2022-09-30T07:12:10.692Z,7.15
2022-09-30T07:13:07.896Z,7.11
2022-09-30T07:14:08.944Z,7.18
2022-09-30T07:15:12.809Z,7.21
2022-09-30T07:16:08.941Z,7.14
2022-09-30T07:17:07.857Z,7.15
2022-09-30T07:18:07.828Z,7.16
2022-09-30T07:19:07.826Z,7.21
2022-09-30T07:20:08.680Z,7.34
2022-09-30T07:21:07.782Z,7.36
2022-09-30T07:22:07.783Z,7.37
2022-09-30T07:23:07.771Z,7.41
2022-09-30T07:24:07.782Z,7.42
2022-09-30T07:25:14.672Z,7.45
2022-09-30T07:26:07.740Z,7.58
2022-09-30T07:27:07.714Z,7.52
2022-09-30T07:28:07.736Z,7.70
2022-09-30T07:29:14.720Z,7.74
2022-09-30T07:30:11.259Z,7.69
2022-09-30T07:31:31.516Z,7.77
2022-09-30T07:32:08.698Z,7.77
2022-09-30T07:33:07.690Z,7.86
2022-09-30T07:34:07.813Z,7.92
2022-09-30T07:35:08.170Z,7.94
2022-09-30T07:36:07.633Z,8.00
2022-09-30T07:37:07.611Z,7.95
2022-09-30T07:38:07.670Z,8.04
2022-09-30T07:39:07.638Z,8.03
2022-09-30T07:40:07.592Z,8.20
2022-09-30T07:41:07.574Z,8.27
2022-09-30T07:42:07.561Z,8.29
2022-09-30T07:43:07.539Z,8.40
2022-09-30T07:44:07.549Z,8.36
2022-09-30T07:45:08.180Z,8.52
2022-09-30T07:46:07.542Z,8.54
2022-09-30T07:47:07.522Z,8.60
2022-09-30T07:48:08.168Z,8.58
2022-09-30T07:49:07.518Z,8.61
2022-09-30T07:50:07.471Z,8.61
2022-09-30T07:51:07.463Z,8.65
2022-09-30T07:52:08.176Z,8.73
2022-09-30T07:53:07.455Z,8.82
2022-09-30T07:54:07.444Z,8.78
2022-09-30T07:55:07.412Z,8.78
2022-09-30T07:56:07.428Z,8.94
2022-09-30T07:57:11.350Z,8.98
2022-09-30T07:58:07.390Z,8.89
2022-09-30T07:59:07.367Z,9.04
2022-09-30T08:00:29.816Z,9.10
2022-09-30T08:01:08.437Z,9.16
2022-09-30T08:02:07.372Z,9.12
2022-09-30T08:03:07.355Z,9.19
2022-09-30T08:04:08.184Z,9.19
2022-09-30T08:05:07.415Z,9.17
2022-09-30T08:06:07.293Z,9.26
2022-09-30T08:07:07.285Z,9.20
2022-09-30T08:08:07.273Z,9.31
2022-09-30T08:09:07.322Z,9.38
2022-09-30T08:10:07.279Z,9.41
2022-09-30T08:11:07.240Z,9.45
2022-09-30T08:12:07.226Z,9.49
2022-09-30T08:13:07.249Z,9.52
2022-09-30T08:14:07.207Z,9.56
2022-09-30T08:15:07.218Z,9.55
2022-09-30T08:16:07.254Z,9.62
2022-09-30T08:17:07.186Z,9.68
2022-09-30T08:18:07.179Z,9.67
2022-09-30T08:19:07.147Z,9.62
2022-09-30T08:20:12.358Z,9.70
2022-09-30T08:21:08.210Z,9.80
2022-09-30T08:22:07.123Z,9.80
2022-09-30T08:23:07.201Z,9.81
2022-09-30T08:24:07.108Z,9.83
2022-09-30T08:25:07.670Z,10.04
2022-09-30T08:26:07.069Z,9.99
2022-09-30T08:27:07.120Z,10.01
2022-09-30T08:28:07.670Z,9.99
2022-09-30T08:29:07.069Z,9.96
2022-09-30T08:30:07.027Z,9.98
2022-09-30T08:31:07.028Z,10.02
2022-09-30T08:32:07.071Z,10.10
2022-09-30T08:33:09.677Z,10.17
2022-09-30T08:34:06.998Z,10.20
2022-09-30T08:35:08.086Z,10.13
2022-09-30T08:36:06.964Z,10.17
2022-09-30T08:37:09.531Z,10.22
2022-09-30T08:38:06.939Z,10.32
2022-09-30T08:39:06.934Z,10.29
2022-09-30T08:40:06.920Z,10.34
2022-09-30T08:41:06.939Z,10.36
2022-09-30T08:42:32.790Z,10.51
2022-09-30T08:43:07.891Z,10.44
2022-09-30T08:44:06.875Z,10.51
2022-09-30T08:45:06.872Z,10.58
2022-09-30T08:46:06.906Z,10.63
2022-09-30T08:47:06.873Z,10.68
2022-09-30T08:48:06.927Z,10.72
2022-09-30T08:49:06.854Z,10.80
2022-09-30T08:50:06.809Z,10.90
2022-09-30T08:51:06.822Z,10.93
2022-09-30T08:52:08.299Z,10.90
2022-09-30T08:53:07.220Z,10.98
2022-09-30T08:54:06.773Z,10.91
2022-09-30T08:55:07.668Z,10.95
2022-09-30T08:56:13.690Z,11.01
2022-09-30T08:57:06.734Z,11.08
2022-09-30T08:58:09.765Z,11.12
2022-09-30T08:59:06.731Z,11.06
2022-09-30T09:00:06.706Z,11.09
2022-09-30T09:01:06.765Z,11.08
2022-09-30T09:02:12.034Z,11.08
2022-09-30T09:03:07.672Z,11.19
2022-09-30T09:04:06.705Z,11.23
2022-09-30T09:05:06.652Z,11.28
2022-09-30T09:06:06.636Z,11.24
2022-09-30T09:07:06.619Z,11.33
2022-09-30T09:08:06.611Z,11.41
2022-09-30T09:09:06.627Z,11.46
2022-09-30T09:10:06.612Z,11.46
2022-09-30T09:11:06.582Z,11.57
2022-09-30T09:12:06.595Z,11.62
2022-09-30T09:13:06.567Z,11.81
2022-09-30T09:14:06.547Z,11.77
2022-09-30T09:15:06.546Z,11.97
2022-09-30T09:16:06.776Z,11.96
2022-09-30T09:17:10.623Z,11.88
2022-09-30T09:18:24.340Z,12.00
2022-09-30T09:19:07.492Z,12.11
2022-09-30T09:20:06.486Z,12.00
2022-09-30T09:21:06.507Z,12.12
2022-09-30T09:22:07.174Z,12.11
2022-09-30T09:23:07.537Z,12.08
2022-09-30T09:24:06.441Z,12.05
2022-09-30T09:25:06.461Z,12.21
2022-09-30T09:26:06.416Z,12.26
2022-09-30T09:27:06.405Z,12.25
2022-09-30T09:28:06.460Z,12.34
2022-09-30T09:29:06.403Z,12.41
2022-09-30T09:30:06.383Z,12.51
2022-09-30T09:31:09.171Z,12.58
2022-09-30T09:32:06.419Z,12.55
2022-09-30T09:33:06.342Z,12.61
2022-09-30T09:34:06.350Z,12.70
2022-09-30T09:35:06.329Z,12.71
2022-09-30T09:36:13.185Z,12.71
2022-09-30T09:37:07.178Z,12.76
2022-09-30T09:38:06.301Z,12.71
2022-09-30T09:39:06.278Z,12.77
2022-09-30T09:40:06.301Z,12.73
2022-09-30T09:41:06.277Z,12.79
2022-09-30T09:42:09.184Z,12.87
2022-09-30T09:43:07.174Z,12.89
2022-09-30T09:44:06.227Z,12.91
2022-09-30T09:45:06.227Z,12.94
2022-09-30T09:46:06.264Z,12.91
2022-09-30T09:47:07.175Z,12.94
2022-09-30T09:48:06.173Z,13.04
2022-09-30T09:49:06.169Z,13.10
2022-09-30T09:50:06.177Z,13.16
2022-09-30T09:51:06.143Z,13.21
2022-09-30T09:52:06.159Z,13.14
2022-09-30T09:53:06.125Z,13.17
2022-09-30T09:54:06.114Z,13.25
2022-09-30T09:55:08.672Z,13.24
2022-09-30T09:56:06.097Z,13.25
2022-09-30T09:57:06.698Z,13.35
2022-09-30T09:58:06.107Z,13.39
2022-09-30T09:59:06.074Z,13.39
2022-09-30T10:00:06.050Z,13.43
2022-09-30T10:01:08.955Z,13.43
2022-09-30T10:02:06.057Z,13.50
2022-09-30T10:03:06.024Z,13.43
2022-09-30T10:04:07.012Z,13.47
2022-09-30T10:05:06.205Z,13.57
2022-09-30T10:06:05.988Z,13.54
2022-09-30T10:07:05.982Z,13.72
2022-09-30T10:08:05.975Z,13.75
2022-09-30T10:09:05.947Z,13.73
2022-09-30T10:10:05.946Z,13.72
2022-09-30T10:11:05.923Z,13.75
2022-09-30T10:12:05.930Z,13.84
2022-09-30T10:13:05.918Z,13.86
2022-09-30T10:14:06.203Z,13.86
2022-09-30T10:15:05.899Z,13.99
2022-09-30T10:16:05.927Z,14.09
2022-09-30T10:17:06.694Z,14.17
2022-09-30T10:18:05.867Z,14.30
2022-09-30T10:19:09.522Z,14.29
2022-09-30T10:20:20.678Z,14.39
2022-09-30T10:21:05.826Z,14.38
2022-09-30T10:22:05.821Z,14.26
2022-09-30T10:23:06.683Z,14.36
2022-09-30T10:24:05.790Z,14.52
2022-09-30T10:25:05.770Z,14.54
2022-09-30T10:26:06.683Z,14.41
2022-09-30T10:27:05.757Z,14.54
2022-09-30T10:28:06.320Z,14.39
2022-09-30T10:29:05.764Z,14.49
2022-09-30T10:30:05.723Z,14.53
2022-09-30T10:31:08.776Z,14.45
2022-09-30T10:32:05.728Z,14.52
2022-09-30T10:33:05.684Z,14.60
2022-09-30T10:34:05.696Z,14.63
2022-09-30T10:35:05.662Z,14.60
2022-09-30T10:36:05.648Z,14.49
2022-09-30T10:37:05.649Z,14.63
2022-09-30T10:38:05.742Z,14.57
2022-09-30T10:39:07.044Z,14.60
2022-09-30T10:40:05.632Z,14.64
2022-09-30T10:41:05.608Z,14.69
2022-09-30T10:42:05.593Z,14.80
2022-09-30T10:43:06.185Z,14.95
2022-09-30T10:44:05.576Z,14.93
2022-09-30T10:45:05.729Z,14.94
2022-09-30T10:46:25.012Z,14.86
2022-09-30T10:47:06.598Z,14.74
2022-09-30T10:48:05.525Z,14.83
2022-09-30T10:49:05.602Z,14.72
2022-09-30T10:50:05.506Z,14.79
2022-09-30T10:51:05.525Z,14.78
2022-09-30T10:52:05.482Z,14.69
2022-09-30T10:53:05.481Z,14.78
2022-09-30T10:54:05.465Z,14.83
2022-09-30T10:55:09.423Z,14.87
2022-09-30T10:56:06.455Z,14.93
2022-09-30T10:57:05.427Z,14.97
2022-09-30T10:58:05.417Z,15.03
2022-09-30T10:59:05.407Z,15.09
2022-09-30T11:00:05.399Z,14.97
2022-09-30T11:01:05.491Z,15.09
2022-09-30T11:02:06.173Z,14.93
2022-09-30T11:03:05.403Z,15.03
2022-09-30T11:04:05.347Z,15.15
2022-09-30T11:05:05.351Z,15.04
2022-09-30T11:06:05.326Z,15.03
2022-09-30T11:07:05.322Z,14.97
2022-09-30T11:08:05.318Z,15.00
2022-09-30T11:09:05.296Z,15.25
2022-09-30T11:10:05.277Z,15.28
2022-09-30T11:11:08.730Z,15.31
2022-09-30T11:12:05.265Z,15.16
2022-09-30T11:13:05.250Z,15.35
2022-09-30T11:14:05.262Z,15.44
2022-09-30T11:15:05.229Z,15.41
2022-09-30T11:16:05.301Z,15.35
2022-09-30T11:17:05.230Z,15.25
2022-09-30T11:18:06.182Z,15.05
2022-09-30T11:19:05.205Z,15.13
2022-09-30T11:20:05.183Z,15.04
2022-09-30T11:21:07.689Z,14.97
2022-09-30T11:22:05.148Z,15.03
2022-09-30T11:23:05.141Z,15.03
2022-09-30T11:24:05.128Z,14.91
2022-09-30T11:25:10.865Z,14.83
2022-09-30T11:26:06.216Z,14.83
2022-09-30T11:27:05.092Z,14.79
2022-09-30T11:28:05.764Z,14.78
2022-09-30T11:29:05.106Z,14.75
2022-09-30T11:30:05.070Z,14.71
2022-09-30T11:31:07.133Z,14.95
2022-09-30T11:32:05.200Z,14.86
2022-09-30T11:33:05.080Z,15.00
2022-09-30T11:34:05.025Z,15.20
2022-09-30T11:35:05.022Z,15.28
2022-09-30T11:36:04.999Z,15.34
2022-09-30T11:37:04.984Z,15.37
2022-09-30T11:38:07.691Z,15.64
2022-09-30T11:39:04.966Z,15.74
2022-09-30T11:40:04.977Z,15.86
2022-09-30T11:41:05.211Z,15.92
2022-09-30T11:42:04.938Z,16.04
2022-09-30T11:43:08.085Z,16.32
2022-09-30T11:44:04.906Z,16.27
2022-09-30T11:45:04.908Z,16.26
2022-09-30T11:46:04.917Z,16.34
2022-09-30T11:47:04.905Z,16.29
2022-09-30T11:48:04.866Z,16.30
2022-09-30T11:49:05.716Z,16.33
2022-09-30T11:50:04.964Z,16.41
2022-09-30T11:51:04.840Z,16.40
2022-09-30T11:52:04.820Z,16.41
2022-09-30T11:53:04.830Z,16.37
2022-09-30T11:54:04.799Z,16.47
2022-09-30T11:55:04.803Z,16.50
2022-09-30T11:56:04.843Z,16.45
2022-09-30T11:57:04.766Z,16.47
2022-09-30T11:58:22.483Z,16.62
2022-09-30T11:59:05.779Z,16.70
2022-09-30T12:00:04.743Z,16.90
2022-09-30T12:01:04.714Z,16.77
2022-09-30T12:02:04.786Z,16.67
2022-09-30T12:03:09.272Z,16.73
2022-09-30T12:04:05.685Z,16.66
2022-09-30T12:05:04.715Z,16.54
2022-09-30T12:06:04.672Z,16.37
2022-09-30T12:07:04.674Z,16.29
2022-09-30T12:08:04.644Z,16.03
2022-09-30T12:09:04.635Z,16.17
2022-09-30T12:10:04.623Z,16.23
2022-09-30T12:11:04.638Z,16.45
2022-09-30T12:12:04.603Z,16.62
2022-09-30T12:13:04.586Z,16.82
2022-09-30T12:14:04.574Z,16.84
2022-09-30T12:15:04.557Z,17.10
2022-09-30T12:16:04.598Z,17.15
2022-09-30T12:17:05.625Z,17.14
2022-09-30T12:18:04.517Z,17.15
2022-09-30T12:19:04.531Z,17.07
2022-09-30T12:20:04.507Z,16.99
2022-09-30T12:21:04.509Z,16.95
2022-09-30T12:22:04.504Z,16.96
2022-09-30T12:23:04.483Z,16.95
2022-09-30T12:24:04.470Z,17.05
2022-09-30T12:25:04.455Z,17.02
2022-09-30T12:26:04.449Z,17.25
2022-09-30T12:27:04.442Z,17.40
2022-09-30T12:28:04.477Z,17.38
2022-09-30T12:29:04.425Z,17.17
2022-09-30T12:30:04.401Z,17.17
2022-09-30T12:31:04.392Z,17.18
2022-09-30T12:32:04.439Z,17.09
2022-09-30T12:33:04.405Z,17.09
2022-09-30T12:34:04.372Z,17.18
2022-09-30T12:35:04.352Z,17.33
2022-09-30T12:36:04.431Z,17.45
2022-09-30T12:37:04.398Z,17.40
2022-09-30T12:38:04.346Z,17.45
2022-09-30T12:39:04.297Z,17.40
2022-09-30T12:40:04.306Z,17.28
2022-09-30T12:41:04.308Z,17.36
2022-09-30T12:42:04.279Z,17.42
2022-09-30T12:43:04.264Z,17.70
2022-09-30T12:44:04.255Z,17.55
2022-09-30T12:45:04.248Z,17.54
2022-09-30T12:46:04.295Z,17.65
2022-09-30T12:47:05.300Z,17.79
2022-09-30T12:48:04.393Z,17.71
2022-09-30T12:49:04.213Z,17.60
2022-09-30T12:50:06.697Z,17.40
2022-09-30T12:51:04.185Z,17.57
2022-09-30T12:52:04.173Z,17.53
2022-09-30T12:53:04.189Z,17.58
2022-09-30T12:54:04.146Z,17.55
2022-09-30T12:55:04.141Z,17.58
2022-09-30T12:56:04.137Z,17.46
2022-09-30T12:57:04.114Z,17.39
2022-09-30T12:58:04.137Z,17.65
2022-09-30T12:59:04.108Z,17.43
2022-09-30T13:00:04.079Z,17.46
2022-09-30T13:01:04.124Z,17.43
2022-09-30T13:02:04.163Z,17.33
2022-09-30T13:03:05.065Z,17.43
2022-09-30T13:04:04.038Z,17.20
2022-09-30T13:05:04.708Z,16.96
2022-09-30T13:06:04.025Z,16.78
2022-09-30T13:07:04.027Z,17.07
2022-09-30T13:08:04.019Z,17.35
2022-09-30T13:09:04.715Z,17.40